x

Annapolis (44063) Weather Station

7:50pm - Tue 21st Oct 2014 All times are EDT. -4 hours from GMT.

  • Wind
    13mph, 16mph gusts
  • Air Temp 61°f
  • Sea Pressure 1011.3mb
  • Annapolis
  • Annapolis

More Historic Weather Station data

Upgrade to MSW Pro to gain access to the past 30 days of data for over 8000 Wavebouys and Weather Stations around the globe.

Join Pro

Comparision Forecast

View Surf forecast
   
Tue 10/21 7:50pm  -   -  13 16 mph 1011.3mb - 61f
7:40pm  -   -  13 18 mph 1011.1mb - 62f
7:20pm  -   -  7 11 mph 1010.7mb - 64f
7:10pm  -   -  4 7 mph 1010.6mb - 64f
7:00pm 0.3ft  -  2 4 mph 1010.4mb 65f 64f
6:40pm  -   -  2 7 mph 1010.3mb - 65f
6:30pm  -   -   -  mph 1010.3mb - 65f
6:20pm  -   -   -  2 mph 1010.2mb - 65f
6:10pm  -   -  2
mph
1010.2mb - 65f
6:00pm 0.3ft  -  2
mph
1010.1mb 65f 65f
5:50pm  -   -  2 4 mph 1010.2mb - 65f
5:40pm  -   -  2
mph
1010.1mb - 65f
5:30pm  -   -  2 4 mph 1010.1mb - 65f
5:20pm  -   -  2 4 mph 1010mb - 65f
5:10pm  -   -  2
mph
1009.9mb - 65f
5:00pm 0.3ft  -  2 4 mph 1009.8mb 65f 65f
4:50pm  -   -  4
mph
1009.8mb - 65f
4:40pm  -   -  2 4 mph 1009.8mb - 65f
4:30pm  -   -  2 4 mph 1009.9mb - 67f
4:20pm  -   -  2
mph
1009.9mb - 67f
4:10pm  -   -  2 4 mph 1009.8mb - 66f
4:00pm 0.3ft  -  4
mph
1009.8mb 65f 66f
3:50pm  -   -  4
mph
1009.9mb - 66f
3:40pm  -   -  4 7 mph 1009.9mb - 65f
3:30pm  -   -  4 7 mph 1010mb - 65f
3:20pm  -   -  4 7 mph 1010mb - 65f
3:10pm  -   -  4 7 mph 1010.1mb - 65f
3:00pm 0.3ft  -  4
mph
1010.1mb 65f 65f
2:50pm  -   -  4 7 mph 1010.1mb - 65f
2:40pm  -   -  4 7 mph 1010.1mb - 65f
2:30pm  -   -  4 7 mph 1010.2mb - 65f
2:20pm  -   -  4 7 mph 1010.2mb - 64f
2:10pm  -   -  4 7 mph 1010.3mb - 64f
2:00pm 0.3ft  -  7
mph
1010.3mb 65f 64f
1:50pm  -   -  7
mph
1010.4mb - 64f
1:40pm  -   -  7 9 mph 1010.3mb - 63f
1:30pm  -   -  7
mph
1010.6mb - 63f
1:20pm  -   -  7
mph
1010.7mb - 63f
1:10pm  -   -  4 7 mph 1010.7mb - 63f
1:00pm 0.3ft  -  4
mph
1010.9mb 65f 63f
12:50pm  -   -  4
mph
1011mb - 62f
12:40pm  -   -  4 7 mph 1011.1mb - 62f
12:30pm  -   -  4 7 mph 1011.3mb - 61f
12:20pm  -   -  7
mph
1011.6mb - 61f
12:10pm  -   -  7
mph
1011.5mb - 61f
12:00pm 0.3ft  -  7
mph
1011.6mb 65f 61f
11:50am  -   -  7
mph
1011.6mb - 61f
11:40am  -   -  4 7 mph 1011.6mb - 61f
11:30am  -   -  4
mph
1012mb - 61f
11:20am  -   -  4
mph
1012.1mb - 61f
11:10am  -   -  4
mph
1012.2mb - 61f
11:00am 0.3ft  -  4
mph
1012.3mb 64f 61f
10:50am  -   -  2 4 mph 1012.5mb - 61f
10:40am  -   -  2 4 mph 1012.6mb - 62f
10:30am  -   -   -  2 mph 1012.8mb - 61f
10:20am  -   -   -  2 mph 1012.7mb - 61f
10:10am  -   -   -  2 mph 1012.8mb - 60f
10:00am 0.7ft  -   -  2 mph 1012.9mb 64f 60f
9:50am  -   -   -  2 mph 1012.8mb - 60f
9:40am  -   -   -  2 mph 1012.7mb - 59f
9:20am  -   -  2
mph
1012.8mb - 59f
9:10am  -   -  2 4 mph 1012.7mb - 58f
9:00am 0.3ft  -  4
mph
1012.7mb 64f 58f
8:50am  -   -  4
mph
1012.3mb - 58f
8:40am  -   -  4 7 mph 1012.2mb - 57f
8:30am  -   -  4 7 mph 1012mb - 57f
8:20am  -   -  4
mph
1012mb - 57f
8:10am  -   -  4 7 mph 1011.9mb - 56f
8:00am 0.3ft  -  4
mph
1011.9mb 64f 57f
7:50am  -   -  4
mph
1011.8mb - 57f
7:40am  -   -  2 4 mph 1011.7mb - 57f
7:30am  -   -  4 7 mph 1011.7mb - 57f
7:20am  -   -  4
mph
1011.6mb - 57f
7:10am  -   -  4 7 mph 1011.8mb - 57f
7:00am 0.7ft  -  4 9 mph 1011.8mb 64f 58f
6:50am  -   -  4 9 mph 1011.5mb - 58f
6:40am  -   -  4 7 mph 1011.4mb - 58f
6:30am  -   -  2 4 mph 1011.5mb - 58f
6:20am  -   -  2 4 mph 1011.9mb - 58f
6:10am  -   -  4 7 mph 1012mb - 58f
6:00am 0.7ft  -  4 7 mph 1011.8mb 64f 58f
5:50am  -   -  7 9 mph 1011.9mb - 59f
5:40am  -   -  7 11 mph 1012.1mb - 59f
5:30am  -   -  7 9 mph 1012mb - 59f
5:20am  -   -  9 11 mph 1012mb - 60f
5:10am  -   -  9 11 mph 1012mb - 60f
5:00am 0.7ft  -  9 11 mph 1012mb 64f 60f
4:50am  -   -  9 11 mph 1012mb - 61f
4:40am  -   -  11 13 mph 1012mb - 61f
4:30am  -   -  11 13 mph 1012mb - 61f
4:20am  -   -  11 13 mph 1012.1mb - 61f
4:10am  -   -  9 11 mph 1012.2mb - 61f
4:00am 0.7ft  -  9 11 mph 1012.2mb 64f 61f
3:50am  -   -  7 9 mph 1012.4mb - 61f
3:40am  -   -  9 11 mph 1012.4mb - 61f
3:30am  -   -  11
mph
1012.3mb - 62f
3:20am  -   -  11 13 mph 1012.4mb - 61f
3:10am  -   -  11 13 mph 1012.5mb - 61f
3:00am 1ft 2s 11 16 mph 1012.6mb 64f 61f
2:50am  -   -  11 13 mph 1012.9mb - 60f
2:40am  -   -  11 13 mph 1013mb - 60f
2:30am  -   -  11 16 mph 1012.8mb - 60f
2:20am  -   -  11 13 mph 1013mb - 60f
2:10am  -   -  11 13 mph 1013.2mb - 60f
2:00am 0.7ft  -  9 11 mph 1013.2mb 64f 60f
1:50am  -   -  7 9 mph 1013.2mb - 60f
1:40am  -   -  7 9 mph 1013.3mb - 59f
1:30am  -   -  9 11 mph 1013.3mb - 59f
1:20am  -   -  7 9 mph 1013.5mb - 59f
1:10am  -   -  7 9 mph 1013.5mb - 60f
1:00am 1ft 3s 7 11 mph 1013.6mb 64f 60f
12:50am  -   -  9 11 mph 1013.8mb - 60f
12:40am  -   -  9 11 mph 1013.9mb - 60f
12:30am  -   -  9 11 mph 1013.9mb - 61f
12:20am  -   -  11 16 mph 1013.9mb - 61f
12:10am  -   -  11 16 mph 1013.8mb - 61f
12:00am 1ft 3s 11 16 mph 1013.9mb 64f 62f
Mon 10/20 11:50pm  -   -  11 16 mph 1014.1mb - 62f
11:40pm  -   -  11 13 mph 1014.3mb - 62f
11:30pm  -   -  11 13 mph 1014.3mb - 62f
11:20pm  -   -  11 13 mph 1014.5mb - 62f
11:10pm  -   -  11 13 mph 1014.6mb - 62f
11:00pm 1.3ft 3s 11 13 mph 1014.6mb 64f 62f
10:50pm  -   -  11 13 mph 1014.7mb - 63f
10:40pm  -   -  11 16 mph 1014.8mb - 63f
10:30pm  -   -  13 16 mph 1014.8mb - 63f
10:20pm  -   -  13 18 mph 1014.7mb - 63f
10:10pm  -   -  13 18 mph 1014.8mb - 63f
10:00pm 1.3ft 3s 13 16 mph 1014.9mb 64f 63f
9:50pm  -   -  13 18 mph 1014.8mb - 63f
9:40pm  -   -  13 18 mph 1014.8mb - 63f
9:30pm  -   -  13 18 mph 1014.8mb - 63f
9:20pm  -   -  16 20 mph 1014.8mb - 63f
9:10pm  -   -  13 20 mph 1014.8mb - 64f
9:00pm 1.6ft 3s 16 20 mph 1014.9mb 64f 64f
8:50pm  -   -  16 22 mph 1015mb - 64f
8:40pm  -   -  16 20 mph 1014.9mb - 64f
8:30pm  -   -  18 22 mph 1014.8mb - 64f
8:20pm  -   -  18 25 mph 1014.7mb - 64f
8:10pm  -   -  16 22 mph 1014.8mb - 64f
8:00pm 1.6ft 3s 16 20 mph 1014.8mb 64f 64f
7:50pm  -   -  16 22 mph 1014.7mb - 64f
7:40pm  -   -  16 20 mph 1014.8mb - 64f
7:30pm  -   -  16 18 mph 1014.7mb - 64f
7:20pm  -   -  16 20 mph 1014.7mb - 64f
7:10pm  -   -  16 20 mph 1014.6mb - 64f
7:00pm 1.6ft 3s 13 18 mph 1014.6mb 64f 64f
6:50pm  -   -  13 18 mph 1014.5mb - 64f
6:40pm  -   -  13 18 mph 1014.6mb - 64f
6:30pm  -   -  16 18 mph 1014.5mb - 65f
6:20pm  -   -  16 18 mph 1014.6mb - 65f
6:10pm  -   -  18 20 mph 1014.6mb - 65f
6:00pm 2ft 3s 16 20 mph 1014.6mb 64f 65f
5:50pm  -   -  16 20 mph 1014.6mb - 64f
5:40pm  -   -  16 20 mph 1014.5mb - 65f
5:30pm  -   -  18 20 mph 1014.5mb - 65f
5:20pm  -   -  18 20 mph 1014.5mb - 64f
5:10pm  -   -  18 22 mph 1014.6mb - 64f
5:00pm 1.6ft 3s 18 20 mph 1014.7mb 64f 65f
4:50pm  -   -  18 20 mph 1014.8mb - 65f
4:40pm  -   -  18 20 mph 1015mb - 65f
4:30pm  -   -  18 20 mph 1014.8mb - 65f
4:20pm  -   -  18 20 mph 1014.9mb - 65f
4:10pm  -   -  18 20 mph 1015mb - 65f
4:00pm 1.6ft 3s 18 20 mph 1015mb 64f 65f
3:50pm  -   -  16 20 mph 1015.1mb - 64f
3:30pm  -   -  18 20 mph 1015.3mb - 64f
3:20pm  -   -  18 22 mph 1015.4mb - 64f
3:10pm  -   -  18 22 mph 1015.4mb - 64f
3:00pm 2ft 3s 18 22 mph 1015.5mb 64f 63f
2:50pm  -   -  18 22 mph 1015.5mb - 63f
2:40pm  -   -  20 27 mph 1015.5mb - 63f
2:30pm  -   -  20 25 mph 1015.6mb - 63f
2:20pm  -   -  22 25 mph 1015.7mb - 62f
2:10pm  -   -  22 25 mph 1015.9mb - 62f
2:00pm 2ft 3s 20 27 mph 1016.1mb 64f 62f
1:50pm  -   -  20 25 mph 1016.2mb - 62f
1:40pm  -   -  18 22 mph 1016.5mb - 62f
1:30pm  -   -  18 22 mph 1016.7mb - 62f
1:20pm  -   -  20 22 mph 1017mb - 61f
1:10pm  -   -  18 22 mph 1017.2mb - 61f
1:00pm 1.6ft 3s 18 22 mph 1017.5mb 64f 61f
12:50pm  -   -  18 22 mph 1017.9mb - 61f
12:40pm  -   -  20 25 mph 1018.1mb - 61f
12:30pm  -   -  18 22 mph 1018.4mb - 61f
12:20pm  -   -  18 22 mph 1018.7mb - 60f
12:10pm  -   -  20 25 mph 1018.9mb - 60f
12:00pm 1.6ft 3s 20 22 mph 1019.1mb 64f 60f
11:50am  -   -  18 22 mph 1019.3mb - 59f
11:40am  -   -  18 22 mph 1019.5mb - 59f
11:30am  -   -  18 22 mph 1019.6mb - 58f
11:20am  -   -  18 20 mph 1019.9mb - 58f
11:10am  -   -  18 22 mph 1020.2mb - 58f
11:00am 1.6ft 3s 18 22 mph 1020.4mb 64f 58f
10:50am  -   -  16 20 mph 1020.4mb - 58f
10:40am  -   -  16 20 mph 1020.5mb - 58f
10:30am  -   -  16 20 mph 1020.3mb - 58f
10:20am  -   -  16 18 mph 1020.6mb - 58f
10:10am  -   -  13 18 mph 1020.7mb - 57f
10:00am 1.3ft 2s 13 20 mph 1020.8mb 64f 57f
9:50am  -   -  11 18 mph 1021mb - 56f
9:40am  -   -  7 9 mph 1021.1mb - 55f
9:30am  -   -  4 7 mph 1021mb - 55f
9:20am  -   -  4 7 mph 1021.1mb - 53f
9:10am  -   -  2 4 mph 1021mb - 53f
9:00am 0.7ft  -  2 4 mph 1020.9mb 64f 53f
8:50am  -   -  2 4 mph 1020.9mb - 52f
8:40am  -   -  2 4 mph 1020.7mb - 52f
8:30am  -   -  2 4 mph 1020.7mb - 51f
8:20am  -   -  4
mph
1020.6mb - 50f
8:10am  -   -  4
mph
1020.4mb - 50f
8:00am 0.3ft  -  4
mph
1020.4mb 64f 50f
7:50am  -   -  2 4 mph 1020.3mb - 50f
7:40am  -   -  4
mph
1020.3mb - 49f
7:30am  -   -  2 4 mph 1020.2mb - 48f
7:20am  -   -  4 7 mph 1020.4mb - 48f
7:10am  -   -  4 7 mph 1020.5mb - 47f
7:00am 0.3ft  -  7
mph
1020.4mb 64f 47f
6:50am  -   -  7 9 mph 1020.4mb - 46f
6:40am  -   -  9
mph
1020.2mb - 46f
6:30am  -   -  7 9 mph 1020.1mb - 47f
6:20am  -   -  7 9 mph 1020.1mb - 48f
6:10am  -   -  7 9 mph 1020.2mb - 50f
6:00am 0.3ft  -  4 7 mph 1020.2mb 64f 50f
5:50am  -   -  2 4 mph 1020.1mb - 50f
5:40am  -   -  2 4 mph 1020mb - 50f
5:30am  -   -  2 4 mph 1020mb - 50f
5:20am  -   -  4
mph
1020mb - 50f
5:10am  -   -  4 7 mph 1020mb - 51f
5:00am 0.3ft  -  4
mph
1020mb 64f 51f
4:50am  -   -  4
mph
1020mb - 51f
4:40am  -   -  4
mph
1019.9mb - 51f
4:30am  -   -  4
mph
1019.8mb - 51f
4:20am  -   -  4
mph
1019.7mb - 51f
4:10am  -   -  4
mph
1019.7mb - 51f
4:00am 0.3ft  -  4 7 mph 1019.7mb 64f 52f
3:50am  -   -  7
mph
1019.7mb - 51f
3:40am  -   -  7
mph
1019.6mb - 51f
3:30am  -   -  7
mph
1019.8mb - 50f
3:20am  -   -  7
mph
1019.9mb - 49f
3:10am  -   -  7 9 mph 1020mb - 49f
3:00am 0.3ft  -  7 9 mph 1020.1mb 64f 49f
2:50am  -   -  7 9 mph 1020.1mb - 49f
2:40am  -   -  7 9 mph 1020.2mb - 49f
2:30am  -   -  9
mph
1020.1mb - 49f
2:20am  -   -  9
mph
1020.1mb - 49f
2:10am  -   -  9
mph
1020.1mb - 49f
2:00am 0.3ft  -  9
mph
1020.1mb 64f 49f
1:50am  -   -  7 9 mph 1020mb - 50f
1:40am  -   -  9
mph
1020.1mb - 50f
1:30am  -   -  9
mph
1020mb - 50f
1:20am  -   -  9
mph
1019.9mb - 50f
1:10am  -   -  9
mph
1019.9mb - 51f
1:00am  -   -  7 9 mph 1019.9mb 64f 51f
12:50am  -   -  7 9 mph 1020.1mb - 52f
12:40am  -   -  7 9 mph 1020mb - 52f
12:30am  -   -  7 9 mph 1019.8mb - 52f
12:20am  -   -  7 9 mph 1019.7mb - 52f
12:10am  -   -  7 9 mph 1020.1mb - 52f
12:00am 0.3ft  -  7 9 mph 1020.3mb 64f 52f
Sun 10/19 11:50pm  -   -  7 9 mph 1020.3mb - 52f
11:30pm  -   -  9
mph
1020.2mb - 52f
11:20pm  -   -  9
mph
1020.2mb - 52f
11:10pm  -   -  7 9 mph 1020.3mb - 52f
11:00pm  -   -  7 9 mph 1020.3mb 64f 52f
10:50pm  -   -  7 9 mph 1020.2mb - 53f
10:40pm  -   -  7 9 mph 1020.1mb - 53f
10:30pm  -   -  7 9 mph 1020mb - 53f
10:20pm  -   -  7 9 mph 1019.8mb - 53f
10:10pm  -   -  7 9 mph 1019.8mb - 53f
10:00pm  -   -  7 9 mph 1019.6mb 64f 53f
9:50pm  -   -  7 9 mph 1019.5mb - 53f
9:40pm  -   -  7 9 mph 1019.6mb - 53f
9:30pm  -   -  7 9 mph 1019.5mb - 53f
9:20pm  -   -  7 9 mph 1019.4mb - 54f
9:10pm  -   -  7 9 mph 1019.3mb - 55f
9:00pm 0.3ft  -  7
mph
1019.2mb 64f 55f
8:50pm  -   -  7 9 mph 1019.3mb - 55f
8:40pm  -   -  7 9 mph 1019.2mb - 56f
8:30pm  -   -  7 9 mph 1019.1mb - 56f
8:20pm  -   -  7 9 mph 1019.1mb - 55f
8:10pm  -   -  7
mph
1018.9mb - 56f
8:00pm 0.3ft  -  7 9 mph 1018.7mb 64f 56f
7:50pm  -   -  7 9 mph 1018.7mb - 57f
7:40pm  -   -  7 9 mph 1018.6mb - 57f
7:30pm  -   -  7 9 mph 1018.5mb - 57f
7:20pm  -   -  7 9 mph 1018.6mb - 57f
7:10pm  -   -  9 11 mph 1018.5mb - 57f
7:00pm 0.7ft  -  7 9 mph 1018.4mb 64f 57f
6:50pm  -   -  7 11 mph 1018.4mb - 57f
6:40pm  -   -  9 11 mph 1018.4mb - 58f
6:30pm  -   -  9 11 mph 1018.3mb - 58f
6:20pm  -   -  11 13 mph 1018.1mb - 58f
6:10pm  -   -  13 18 mph 1018mb - 59f
6:00pm 1ft 2s 13 20 mph 1017.9mb 64f 59f
5:50pm  -   -  13 18 mph 1017.6mb - 59f
5:40pm  -   -  16 18 mph 1017.6mb - 59f
5:30pm  -   -  16 20 mph 1017.5mb - 59f
5:20pm  -   -  16 20 mph 1017.3mb - 59f
5:10pm  -   -  13 18 mph 1017.2mb - 59f
5:00pm 0.7ft  -  16 22 mph 1017.1mb 64f 59f
4:50pm  -   -  18 22 mph 1017.2mb - 59f
4:40pm  -   -  16 22 mph 1017mb - 59f
4:30pm  -   -  16 22 mph 1016.9mb - 59f
4:20pm  -   -  18 22 mph 1016.9mb - 58f
4:10pm  -   -  18 22 mph 1017.1mb - 58f
4:00pm 1ft 2s 18 22 mph 1017.2mb 65f 58f
3:50pm  -   -  18 22 mph 1017.1mb - 58f
3:40pm  -   -  20 22 mph 1017.1mb - 58f
3:30pm  -   -  16 22 mph 1017mb - 57f
3:20pm  -   -  18 22 mph 1016.9mb - 57f
3:10pm  -   -  18 25 mph 1016.9mb - 57f
3:00pm 1ft 3s 16 22 mph 1016.8mb 65f 57f
2:50pm  -   -  16 20 mph 1017mb - 56f
2:40pm  -   -  16 22 mph 1017mb - 56f
2:30pm  -   -  16 22 mph 1016.9mb - 56f
2:20pm  -   -  16 22 mph 1016.9mb - 56f
2:10pm  -   -  16 22 mph 1016.9mb - 56f
2:00pm 1ft 2s 18 27 mph 1017mb 65f 56f
1:50pm  -   -  18 25 mph 1017mb - 55f
1:40pm  -   -  18 25 mph 1017.1mb - 55f
1:30pm  -   -  18 25 mph 1017.2mb - 55f
1:20pm  -   -  20 27 mph 1017.3mb - 55f
1:10pm  -   -  20 25 mph 1017.4mb - 55f
1:00pm 1ft 2s 20 25 mph 1017.4mb 65f 54f
12:50pm  -   -  16 22 mph 1017.5mb - 54f
12:40pm  -   -  18 25 mph 1017.5mb - 54f
12:30pm  -   -  20 31 mph 1017.5mb - 54f
12:20pm  -   -  18 25 mph 1017.6mb - 53f
12:10pm  -   -  20 27 mph 1017.6mb - 53f
12:00pm 1.3ft 3s 20 27 mph 1017.6mb 65f 53f
11:50am  -   -  20 27 mph 1017.6mb - 53f
11:40am  -   -  20 27 mph 1017.6mb - 53f
11:30am  -   -  25 29 mph 1017.5mb - 53f
11:20am  -   -  20 27 mph 1017.4mb - 53f
11:10am  -   -  20 27 mph 1017.2mb - 53f
11:00am 1ft 3s 20 29 mph 1017.2mb 64f 53f
10:50am  -   -  20 31 mph 1017.2mb - 53f
10:40am  -   -  20 27 mph 1017.2mb - 53f
10:30am  -   -  22 27 mph 1017.2mb - 52f
10:20am  -   -  22 29 mph 1017.2mb - 52f
10:10am  -   -  20 25 mph 1017.1mb - 53f
10:00am 1.6ft 3s 20 31 mph 1017mb 65f 53f
9:50am  -   -  25 34 mph 1016.9mb - 53f
9:40am  -   -  25 31 mph 1016.8mb - 53f
9:30am  -   -  22 31 mph 1016.7mb - 53f
9:20am  -   -  22 29 mph 1016.7mb - 53f
9:10am  -   -  25 29 mph 1016.6mb - 53f
9:00am 1ft 3s 22 29 mph 1016.4mb 64f 53f
8:50am  -   -  22 29 mph 1016.2mb - 53f
8:40am  -   -  20 34 mph 1016.1mb - 53f
8:30am  -   -  18 22 mph 1016mb - 52f
8:20am  -   -  16 22 mph 1015.9mb - 52f
8:10am  -   -  16 22 mph 1015.7mb - 52f
8:00am 0.7ft  -  16 25 mph 1015.6mb 64f 52f
7:50am  -   -  16 20 mph 1015.6mb - 52f
7:40am  -   -  16 18 mph 1015.5mb - 53f
7:30am  -   -  16 20 mph 1015.3mb - 53f
7:20am  -   -  16 22 mph 1015.3mb - 53f
7:10am  -   -  16 22 mph 1015mb - 53f
7:00am 0.7ft  -  18 22 mph 1014.7mb 64f 53f
6:50am  -   -  18 25 mph 1014.6mb - 53f
6:40am  -   -  18 22 mph 1014.3mb - 53f
6:30am  -   -  16 25 mph 1014.1mb - 54f
6:20am  -   -  16 20 mph 1013.9mb - 54f
6:10am  -   -  18 22 mph 1013.8mb - 54f
6:00am 1ft 3s 20 25 mph 1013.5mb 65f 54f
5:50am  -   -  20 27 mph 1013.3mb - 54f
5:40am  -   -  16 25 mph 1013.2mb - 55f
5:30am  -   -  16 20 mph 1013.1mb - 55f
5:20am  -   -  18 25 mph 1013.1mb - 55f
5:10am  -   -  18 22 mph 1012.8mb - 55f
5:00am 1ft 2s 18 25 mph 1012.7mb 65f 55f
4:50am  -   -  20 25 mph 1012.7mb - 55f
4:40am  -   -  20 25 mph 1012.4mb - 55f
4:30am  -   -  18 22 mph 1012.3mb - 55f
4:20am  -   -  18 22 mph 1012.3mb - 55f
4:10am  -   -  16 20 mph 1012.2mb - 55f
4:00am 0.3ft  -  16 18 mph 1012.2mb 65f 55f
3:50am  -   -  13 18 mph 1012.4mb - 55f
3:40am  -   -  13 16 mph 1012.1mb - 55f
3:30am  -   -  13 16 mph 1012mb - 54f
3:20am  -   -  13 16 mph 1011.7mb - 54f
3:10am  -   -  13 16 mph 1011.6mb - 54f
3:00am 0.3ft  -  13 16 mph 1011.5mb 65f 54f
2:50am  -   -  11 16 mph 1011.9mb - 54f
2:40am  -   -  11 16 mph 1011.4mb - 54f
2:30am  -   -  11 16 mph 1011.7mb - 54f
2:20am  -   -  11 13 mph 1011.8mb - 54f
2:10am  -   -  11 16 mph 1011.6mb - 53f
2:00am 0.3ft  -  9 13 mph 1011.4mb 65f 54f
1:50am  -   -  11 16 mph 1011.4mb - 54f
1:40am  -   -  11 16 mph 1011.3mb - 54f
1:30am  -   -  11 16 mph 1011.2mb - 54f
1:20am  -   -  11 13 mph 1011mb - 54f
1:10am  -   -  13 16 mph 1011mb - 54f
1:00am 0.7ft  -  13 16 mph 1011.2mb 65f 54f
12:50am  -   -  13 16 mph 1011.1mb - 54f
12:40am  -   -  13 16 mph 1011.1mb - 54f
12:30am  -   -  13 18 mph 1011mb - 55f
12:20am  -   -  11 18 mph 1011.2mb - 55f
12:10am  -   -  13 18 mph 1011.2mb - 55f
12:00am 1ft 2s 16 20 mph 1011.2mb 65f 55f
Sat 10/18 11:50pm  -   -  16 20 mph 1011.3mb - 55f
11:40pm  -   -  18 22 mph 1011.2mb - 56f
11:30pm  -   -  18 22 mph 1011.1mb - 56f
11:20pm  -   -  18 22 mph 1011.2mb - 56f
11:10pm  -   -  16 22 mph 1011.3mb - 56f
11:00pm 0.7ft  -  18 22 mph 1011.1mb 65f 56f
10:50pm  -   -  18 22 mph 1011.3mb - 56f
10:40pm  -   -  16 20 mph 1011.5mb - 57f
10:30pm  -   -  20 25 mph 1010.8mb - 57f
10:20pm  -   -  18 22 mph 1011mb - 57f
10:10pm  -   -  16 22 mph 1011.1mb - 57f
10:00pm 0.7ft  -  18 22 mph 1010.9mb 66f 57f
9:50pm  -   -  16 20 mph 1011mb - 57f
9:40pm  -   -  16 20 mph 1010.8mb - 58f
9:30pm  -   -  18 27 mph 1010.7mb - 58f
9:20pm  -   -  18 25 mph 1010.6mb - 58f
9:10pm  -   -  18 22 mph 1010.5mb - 58f
9:00pm 0.7ft  -  16 20 mph 1010.5mb 66f 58f
8:50pm  -   -  13 18 mph 1010.5mb - 59f
8:40pm  -   -  16 20 mph 1010.6mb - 59f
8:30pm  -   -  13 16 mph 1010.6mb - 59f
8:20pm  -   -  16 18 mph 1010.4mb - 59f
8:10pm  -   -  18 22 mph 1009.9mb - 59f
8:00pm 1ft 2s 18 25 mph 1009.7mb 66f 60f
7:50pm  -   -  18 22 mph 1009.5mb - 60f
7:40pm  -   -  18 25 mph 1009.3mb - 60f
7:30pm  -   -  18 25 mph 1009.3mb - 60f
7:20pm  -   -  20 22 mph 1009.2mb - 60f
7:10pm  -   -  20 25 mph 1009.3mb - 61f
7:00pm 0.7ft  -  20 27 mph 1009.3mb 66f 61f
6:50pm  -   -  18 25 mph 1008.8mb - 61f
6:40pm  -   -  18 27 mph 1008.5mb - 61f
6:30pm  -   -  18 22 mph 1008.4mb - 62f
6:20pm  -   -  22 29 mph 1008.2mb - 62f
6:10pm  -   -  20 27 mph 1008.2mb - 62f
6:00pm 1ft 3s 20 27 mph 1008.1mb 66f 62f
5:50pm  -   -  20 25 mph 1007.9mb - 63f
5:40pm  -   -  25 31 mph 1007.6mb - 63f
5:30pm  -   -  22 27 mph 1007.4mb - 64f
5:20pm  -   -  20 25 mph 1007.2mb - 64f
5:10pm  -   -  20 25 mph 1007.1mb - 65f
5:00pm 1ft 2s 20 25 mph 1007mb 66f 65f
4:50pm  -   -  20 27 mph 1006.7mb - 65f
4:40pm  -   -  18 22 mph 1006.6mb - 66f
4:30pm  -   -  20 27 mph 1006.4mb - 66f
4:20pm  -   -  18 22 mph 1006.3mb - 67f
4:10pm  -   -  20 25 mph 1006.1mb - 67f
4:00pm 1ft 2s 20 27 mph 1005.9mb 66f 68f
3:50pm  -   -  16 25 mph 1005.9mb - 69f
3:40pm  -   -  18 25 mph 1005.8mb - 68f
3:30pm  -   -  20 27 mph 1005.6mb - 68f
3:20pm  -   -  20 29 mph 1005.5mb - 68f
3:10pm  -   -  20 27 mph 1005.3mb - 68f
3:00pm 1ft 2s 18 25 mph 1005.2mb 66f 69f
2:50pm  -   -  18 22 mph 1005.1mb - 69f
2:40pm  -   -  16 22 mph 1005.1mb - 69f
2:30pm  -   -  18 22 mph 1005.1mb - 69f
2:20pm  -   -  18 22 mph 1005.1mb - 69f
2:10pm  -   -  16 20 mph 1005.1mb - 69f
2:00pm 1ft 2s 18 25 mph 1005mb 66f 69f
1:50pm  -   -  18 22 mph 1004.9mb - 69f
1:40pm  -   -  16 20 mph 1005mb - 69f
1:30pm  -   -  18 25 mph 1005mb - 69f
1:20pm  -   -  18 25 mph 1005.1mb - 69f
1:10pm  -   -  20 25 mph 1005.3mb - 69f
1:00pm 1ft 3s 20 27 mph 1005mb 66f 69f
12:50pm  -   -  18 27 mph 1005.2mb - 69f
12:40pm  -   -  20 27 mph 1005.3mb - 69f
12:30pm  -   -  18 27 mph 1005.4mb - 69f
12:20pm  -   -  18 22 mph 1005.3mb - 69f
12:10pm  -   -  20 22 mph 1005.5mb - 69f
12:00pm 1ft 3s 18 27 mph 1005.8mb 66f 69f
11:50am  -   -  18 25 mph 1005.3mb - 68f
11:40am  -   -  18 22 mph 1005.2mb - 68f
11:30am  -   -  22 27 mph 1005.2mb - 68f
11:20am  -   -  20 25 mph 1005.8mb - 68f
11:10am  -   -  20 27 mph 1005.7mb - 67f
11:00am 1ft 3s 18 25 mph 1005.7mb 66f 67f
10:50am  -   -  16 20 mph 1005.8mb - 67f
10:40am  -   -  13 18 mph 1006mb - 66f
10:30am  -   -  13 18 mph 1005.9mb - 66f
10:20am  -   -  13 16 mph 1006.1mb - 66f
10:10am  -   -  11 16 mph 1006.2mb - 65f
10:00am 0.3ft  -  9 11 mph 1006.1mb 66f 64f
9:50am  -   -  9 11 mph 1006.1mb - 63f
9:40am  -   -  11 13 mph 1006.1mb - 64f
9:30am  -   -  11 16 mph 1005.9mb - 63f
9:20am  -   -  16 18 mph 1005.9mb - 62f
9:10am  -   -  13 16 mph 1005.9mb - 62f
9:00am 0.7ft  -  11 16 mph 1005.6mb 66f 62f
8:50am  -   -  13 16 mph 1005.7mb - 62f
8:40am  -   -  16 20 mph 1005.5mb - 62f
8:30am  -   -  13 16 mph 1005mb - 62f
8:20am  -   -  13 16 mph 1004.9mb - 62f
8:10am  -   -  13 18 mph 1004.9mb - 61f
8:00am 0.7ft  -  13 18 mph 1004.6mb 66f 61f
7:50am  -   -  13 16 mph 1004.4mb - 60f
7:40am  -   -  13 16 mph 1004.4mb - 60f
7:30am  -   -  11 13 mph 1004.3mb - 60f
7:20am  -   -  9 11 mph 1004.3mb - 61f
7:10am  -   -  11 13 mph 1004.3mb - 61f
7:00am 0.7ft  -  9 13 mph 1004.1mb 66f 61f
6:50am  -   -  9 11 mph 1004mb - 61f
6:40am  -   -  9 11 mph 1004mb - 61f
6:30am  -   -  9 13 mph 1003.5mb - 61f
6:20am  -   -  9 11 mph 1003.4mb - 61f
6:10am  -   -  9 11 mph 1004mb - 60f
6:00am 0.7ft  -  9 11 mph 1004.1mb 66f 60f
5:50am  -   -  9 11 mph 1003.5mb - 60f
5:40am  -   -  9 11 mph 1003.6mb - 60f
5:30am  -   -  9 11 mph 1003.6mb - 61f
5:20am  -   -  9 11 mph 1003.9mb - 61f
5:10am  -   -  9 11 mph 1004.2mb - 61f
5:00am 0.7ft  -  9 11 mph 1004.2mb 66f 61f
4:50am  -   -  9 11 mph 1003.5mb - 61f
4:40am  -   -  11 13 mph 1003.5mb - 61f
4:30am  -   -  11 16 mph 1003.5mb - 61f
4:20am  -   -  11 13 mph 1003.6mb - 61f
4:10am  -   -  11 13 mph 1003.7mb - 62f
4:00am 0.7ft  -  11 13 mph 1003.8mb 66f 62f
3:50am  -   -  11 13 mph 1003.8mb - 62f
3:40am  -   -  11 13 mph 1003.9mb - 62f
3:30am  -   -  13 16 mph 1003.9mb - 62f
3:20am  -   -  11 16 mph 1004mb - 62f
3:10am  -   -  13 18 mph 1004.1mb - 62f
3:00am 0.7ft  -  13 16 mph 1004.1mb 66f 63f
2:50am  -   -  13 18 mph 1003.9mb - 63f
2:40am  -   -  9 11 mph 1004.1mb - 63f
2:30am  -   -  7 11 mph 1004.3mb - 63f
2:20am  -   -  9 11 mph 1004.3mb - 63f
2:10am  -   -  9 11 mph 1004.5mb - 63f
2:00am 0.7ft  -  7 9 mph 1004.5mb 66f 63f
1:50am  -   -  7 9 mph 1004.6mb - 63f
1:40am  -   -  7 9 mph 1004.8mb - 63f
1:30am  -   -  7 9 mph 1005mb - 63f
1:20am  -   -  7 9 mph 1005mb - 64f
1:10am  -   -  7 11 mph 1005mb - 64f
1:00am 0.7ft  -  9 11 mph 1005mb 66f 64f
12:50am  -   -  7 11 mph 1005.1mb - 64f
12:40am  -   -  9 13 mph 1005.2mb - 64f